Melrose, Kansas
Current Conditions -  °F | °C
As of 6:53 PM on Saturday 25 Oct 2014 (Local Time) from KJLN Reporting Station
Clear Clear  
Wind Chill: 71°   Ceiling: Unl
Heat Index: 71°   Visibility: 10mi
Dew Point: 64°   Wind: 3mph
Humidity: 78%   Direction: 180°S
Pressure: 30.02"   Gusts: NA
Location:  37.0587°N, 94.8848°W
Report Text: KJLN 252353Z 18003KT 10SM CLR 22/18 A3002 RMK AO2 SLP160 T02170178 10283 20217 58004
Loading
Personal Weather Stations






























Interactive Weather Map
Tropical Storm Tracking
New forecast layout! Learn more

10-Day Weather Forecast

Advertisements
Track Severe Weather on mobile